createdAt,value
2022-11-22T00:00:46.126Z,6.80
2022-11-22T00:03:13.321Z,6.80
2022-11-22T00:05:40.548Z,6.80
2022-11-22T00:08:08.032Z,6.80
2022-11-22T00:10:35.534Z,6.80
2022-11-22T00:13:03.314Z,6.80
2022-11-22T00:15:30.572Z,6.80
2022-11-22T00:17:57.948Z,6.80
2022-11-22T00:20:25.184Z,6.80
2022-11-22T00:22:52.558Z,6.90
2022-11-22T00:25:19.822Z,6.90
2022-11-22T00:27:47.025Z,6.90
2022-11-22T00:30:14.256Z,6.90
2022-11-22T00:32:41.471Z,6.90
2022-11-22T00:35:09.814Z,6.90
2022-11-22T00:37:36.958Z,6.90
2022-11-22T00:40:06.162Z,6.90
2022-11-22T00:42:33.547Z,6.90
2022-11-22T00:45:00.753Z,6.80
2022-11-22T00:47:27.963Z,6.80
2022-11-22T00:49:55.060Z,6.80
2022-11-22T00:52:22.237Z,6.70
2022-11-22T00:54:54.455Z,6.60
2022-11-22T00:57:22.507Z,6.60
2022-11-22T01:03:07.657Z,6.50
2022-11-22T01:05:35.192Z,6.50
2022-11-22T01:08:02.525Z,6.50
2022-11-22T01:10:30.057Z,6.60
2022-11-22T01:13:00.457Z,6.60
2022-11-22T01:15:28.153Z,6.60
2022-11-22T01:17:55.818Z,6.60
2022-11-22T01:20:41.598Z,6.60
2022-11-22T01:23:10.148Z,6.60
2022-11-22T01:25:37.533Z,6.60
2022-11-22T01:28:04.949Z,6.70
2022-11-22T01:30:32.190Z,6.70
2022-11-22T01:32:59.559Z,6.70
2022-11-22T01:35:26.827Z,6.70
2022-11-22T01:37:54.139Z,6.70
2022-11-22T01:40:21.418Z,6.70
2022-11-22T01:42:53.892Z,6.70
2022-11-22T01:45:46.358Z,6.70
2022-11-22T01:48:13.514Z,6.70
2022-11-22T01:50:43.544Z,6.70
2022-11-22T01:53:16.091Z,6.70
2022-11-22T01:55:44.637Z,6.70
2022-11-22T01:58:13.999Z,6.70
2022-11-22T02:00:43.507Z,6.70
2022-11-22T02:03:13.426Z,6.70
2022-11-22T02:05:41.083Z,6.70
2022-11-22T02:08:14.634Z,6.70
2022-11-22T02:10:46.954Z,6.70
2022-11-22T02:13:16.183Z,6.70
2022-11-22T02:15:43.388Z,6.70
2022-11-22T02:18:11.055Z,6.70
2022-11-22T02:20:39.583Z,6.80
2022-11-22T02:23:37.350Z,6.80
2022-11-22T02:26:04.688Z,6.80
2022-11-22T02:28:36.958Z,6.80
2022-11-22T02:31:04.078Z,6.80
2022-11-22T02:33:31.233Z,6.80
2022-11-22T02:35:59.514Z,6.80
2022-11-22T02:38:30.658Z,6.80
2022-11-22T02:41:03.566Z,6.80
2022-11-22T02:43:35.047Z,6.80
2022-11-22T02:46:07.675Z,6.80
2022-11-22T02:48:35.219Z,6.80
2022-11-22T02:51:02.462Z,6.80
2022-11-22T02:53:31.917Z,6.80
2022-11-22T02:55:59.134Z,6.80
2022-11-22T02:58:26.346Z,6.80
2022-11-22T03:00:53.603Z,6.80
2022-11-22T03:03:20.930Z,6.80
2022-11-22T03:05:48.005Z,6.80
2022-11-22T03:08:15.180Z,6.80
2022-11-22T03:10:42.268Z,6.80
2022-11-22T03:13:09.622Z,6.80
2022-11-22T03:15:36.834Z,6.80
2022-11-22T03:18:04.759Z,6.80
2022-11-22T03:20:33.391Z,6.80
2022-11-22T03:23:01.457Z,6.80
2022-11-22T03:25:28.990Z,6.80
2022-11-22T03:27:56.434Z,6.80
2022-11-22T03:30:23.565Z,6.80
2022-11-22T03:32:50.805Z,6.80
2022-11-22T03:35:17.996Z,6.80
2022-11-22T03:37:45.124Z,6.80
2022-11-22T03:40:12.992Z,6.80
2022-11-22T03:42:40.145Z,6.80
2022-11-22T03:45:07.818Z,6.80
2022-11-22T03:47:35.330Z,6.80
2022-11-22T03:50:02.440Z,6.80
2022-11-22T03:52:29.770Z,6.80
2022-11-22T03:54:56.911Z,6.80
2022-11-22T03:57:24.344Z,6.80
2022-11-22T03:59:51.431Z,6.90
2022-11-22T04:02:18.636Z,6.90
2022-11-22T04:04:45.842Z,6.90
2022-11-22T04:07:12.979Z,6.90
2022-11-22T04:09:40.242Z,6.90
2022-11-22T04:12:07.661Z,6.90
2022-11-22T04:14:53.273Z,6.90
2022-11-22T04:17:40.560Z,6.90
2022-11-22T04:20:30.083Z,6.90
2022-11-22T04:23:11.530Z,6.80
2022-11-22T04:25:47.728Z,6.80
2022-11-22T04:28:17.065Z,6.70
2022-11-22T04:31:03.193Z,6.70
2022-11-22T04:33:30.703Z,6.70
2022-11-22T04:35:57.862Z,6.70
2022-11-22T04:38:25.344Z,6.70
2022-11-22T04:40:52.578Z,6.70
2022-11-22T04:43:43.108Z,6.70
2022-11-22T04:46:11.324Z,6.70
2022-11-22T04:49:07.459Z,6.70
2022-11-22T04:51:53.140Z,6.70
2022-11-22T04:54:20.543Z,6.70
2022-11-22T04:56:48.004Z,6.80
2022-11-22T04:59:15.335Z,6.80
2022-11-22T05:01:42.850Z,6.80
2022-11-22T05:04:10.168Z,6.80
2022-11-22T05:06:38.057Z,6.90
2022-11-22T05:09:05.202Z,6.90
2022-11-22T05:11:32.461Z,6.90
2022-11-22T05:13:59.727Z,6.90
2022-11-22T05:16:26.927Z,6.90
2022-11-22T05:19:00.105Z,7.00
2022-11-22T05:21:28.794Z,7.00
2022-11-22T05:23:56.371Z,7.00
2022-11-22T05:26:28.019Z,7.00
2022-11-22T05:33:07.829Z,7.00
2022-11-22T05:35:35.242Z,7.00
2022-11-22T05:38:02.459Z,7.00
2022-11-22T05:40:29.610Z,6.90
2022-11-22T05:42:58.317Z,6.90
2022-11-22T05:45:25.699Z,6.90
2022-11-22T05:47:52.859Z,6.90
2022-11-22T05:50:20.127Z,6.90
2022-11-22T05:52:54.792Z,6.90
2022-11-22T05:55:22.085Z,6.90
2022-11-22T05:57:49.237Z,6.90
2022-11-22T06:00:17.115Z,6.90
2022-11-22T06:02:44.225Z,6.90
2022-11-22T06:05:11.668Z,6.90
2022-11-22T06:07:39.077Z,6.90
2022-11-22T06:10:06.781Z,6.90
2022-11-22T06:12:33.986Z,6.90
2022-11-22T06:15:01.235Z,6.80
2022-11-22T06:17:28.397Z,6.80
2022-11-22T06:19:55.581Z,6.80
2022-11-22T06:22:22.957Z,6.80
2022-11-22T06:24:50.103Z,6.80
2022-11-22T06:27:17.263Z,6.80
2022-11-22T06:29:44.382Z,6.80
2022-11-22T06:32:13.457Z,6.80
2022-11-22T06:34:40.594Z,6.80
2022-11-22T06:37:07.901Z,6.80
2022-11-22T06:39:35.633Z,6.90
2022-11-22T06:42:02.769Z,6.90
2022-11-22T06:44:30.136Z,6.90
2022-11-22T06:46:57.244Z,6.90
2022-11-22T06:49:24.374Z,6.90
2022-11-22T06:51:51.903Z,6.90
2022-11-22T06:54:19.036Z,7.00
2022-11-22T06:56:46.297Z,7.00
2022-11-22T06:59:13.600Z,7.00
2022-11-22T07:01:40.972Z,7.00
2022-11-22T07:04:08.386Z,7.00
2022-11-22T07:06:38.900Z,7.10
2022-11-22T07:09:08.868Z,7.10
2022-11-22T07:11:36.986Z,7.10
2022-11-22T07:14:08.807Z,7.10
2022-11-22T07:16:39.694Z,7.10
2022-11-22T07:19:07.697Z,7.20
2022-11-22T07:21:36.694Z,7.20
2022-11-22T07:24:05.939Z,7.20
2022-11-22T07:26:33.309Z,7.20
2022-11-22T07:29:00.382Z,7.10
2022-11-22T07:31:28.381Z,7.10
2022-11-22T07:33:57.670Z,7.10
2022-11-22T07:36:25.896Z,7.10
2022-11-22T07:38:53.071Z,7.10
2022-11-22T07:41:22.165Z,7.20
2022-11-22T07:43:49.364Z,7.10
2022-11-22T07:46:29.984Z,7.10
2022-11-22T07:49:01.899Z,7.10
2022-11-22T07:51:29.811Z,7.10
2022-11-22T07:53:59.027Z,7.10
2022-11-22T07:56:26.556Z,7.10
2022-11-22T08:03:08.402Z,7.10
2022-11-22T08:05:35.651Z,7.10
2022-11-22T08:08:02.819Z,7.10
2022-11-22T08:10:30.072Z,7.10
2022-11-22T08:13:00.564Z,7.10
2022-11-22T08:15:27.712Z,7.10
2022-11-22T08:17:54.892Z,7.10
2022-11-22T08:20:22.247Z,7.10
2022-11-22T08:22:49.759Z,7.10
2022-11-22T08:25:16.907Z,7.10
2022-11-22T08:27:44.362Z,7.10
2022-11-22T08:30:12.282Z,7.10
2022-11-22T08:32:39.462Z,7.10
2022-11-22T08:35:07.241Z,7.20
2022-11-22T08:37:34.830Z,7.20
2022-11-22T08:40:02.140Z,7.20
2022-11-22T08:42:29.433Z,7.20
2022-11-22T08:44:56.763Z,7.20
2022-11-22T08:47:24.121Z,7.20
2022-11-22T08:49:52.169Z,7.20
2022-11-22T08:52:19.603Z,7.20
2022-11-22T08:54:47.060Z,7.20
2022-11-22T08:57:14.717Z,7.20
2022-11-22T08:59:42.497Z,7.20
2022-11-22T09:09:37.010Z,7.20
2022-11-22T09:12:06.159Z,7.20
2022-11-22T09:14:34.146Z,7.30
2022-11-22T09:17:02.107Z,7.30
2022-11-22T09:19:29.958Z,7.30
2022-11-22T09:21:57.798Z,7.20
2022-11-22T09:24:25.714Z,7.20
2022-11-22T09:26:53.610Z,7.10
2022-11-22T09:29:21.122Z,7.10
2022-11-22T09:31:48.612Z,7.10
2022-11-22T09:34:16.164Z,7.10
2022-11-22T09:36:43.930Z,7.00
2022-11-22T09:39:11.518Z,7.00
2022-11-22T09:42:11.720Z,7.00
2022-11-22T09:45:13.622Z,7.00
2022-11-22T09:47:56.941Z,7.00
2022-11-22T09:50:52.046Z,7.00
2022-11-22T09:53:26.730Z,7.00
2022-11-22T09:55:58.910Z,7.10
2022-11-22T10:06:39.880Z,7.20
2022-11-22T10:09:34.371Z,7.20
2022-11-22T10:12:10.387Z,7.20
2022-11-22T10:15:03.107Z,7.20
2022-11-22T10:17:47.402Z,7.30
2022-11-22T10:20:20.547Z,7.30
2022-11-22T10:22:49.285Z,7.30
2022-11-22T10:25:40.682Z,7.30
2022-11-22T10:28:18.751Z,7.40
2022-11-22T10:31:01.645Z,7.40
2022-11-22T10:33:41.296Z,7.40
2022-11-22T10:36:14.188Z,7.40
2022-11-22T10:39:11.760Z,7.40
2022-11-22T10:41:43.964Z,7.40
2022-11-22T10:44:25.063Z,7.40
2022-11-22T10:46:58.053Z,7.50
2022-11-22T10:49:44.182Z,7.50
2022-11-22T10:52:33.508Z,7.50
2022-11-22T10:55:31.638Z,7.50
2022-11-22T10:58:24.654Z,7.50
2022-11-22T11:01:08.445Z,7.50
2022-11-22T11:03:48.321Z,7.60
2022-11-22T11:06:29.565Z,7.60
2022-11-22T11:12:22.255Z,7.70
2022-11-22T11:14:55.674Z,7.80
2022-11-22T11:17:35.378Z,7.80
2022-11-22T11:20:11.323Z,7.90
2022-11-22T11:25:40.384Z,7.90
2022-11-22T11:28:13.777Z,7.90
2022-11-22T11:31:08.102Z,8.00
2022-11-22T11:33:38.424Z,8.00
2022-11-22T11:36:20.355Z,8.00
2022-11-22T11:38:58.325Z,8.00
2022-11-22T11:41:38.841Z,8.10
2022-11-22T11:44:32.279Z,8.10
2022-11-22T11:47:00.451Z,8.20
2022-11-22T11:49:39.171Z,8.20
2022-11-22T11:52:16.370Z,8.20
2022-11-22T11:54:46.441Z,8.20
2022-11-22T11:57:26.047Z,8.20
2022-11-22T11:59:54.811Z,8.20
2022-11-22T12:02:22.981Z,8.20
2022-11-22T12:05:12.933Z,8.20
2022-11-22T12:07:45.816Z,8.20
2022-11-22T12:10:29.913Z,8.20
2022-11-22T12:13:04.704Z,8.20
2022-11-22T12:15:59.350Z,8.20
2022-11-22T12:18:52.043Z,8.20
2022-11-22T12:21:33.574Z,8.10
2022-11-22T12:24:26.459Z,8.10
2022-11-22T12:26:48.586Z,8.10
2022-11-22T12:29:16.387Z,8.10
2022-11-22T12:32:41.298Z,8.10
2022-11-22T12:35:20.714Z,8.10
2022-11-22T12:38:11.640Z,8.10
2022-11-22T12:40:58.578Z,8.20
2022-11-22T12:43:28.551Z,8.20
2022-11-22T12:46:00.511Z,8.20
2022-11-22T12:49:02.466Z,8.20
2022-11-22T12:51:42.807Z,8.30
2022-11-22T12:54:19.948Z,8.30
2022-11-22T12:56:54.994Z,8.30
2022-11-22T12:59:46.362Z,8.30
2022-11-22T13:02:40.035Z,8.30
2022-11-22T13:05:18.935Z,8.30
2022-11-22T13:08:02.105Z,8.40
2022-11-22T13:10:29.341Z,8.40
2022-11-22T13:12:59.556Z,8.40
2022-11-22T13:15:29.872Z,8.40
2022-11-22T13:17:57.467Z,8.40
2022-11-22T13:20:42.693Z,8.30
2022-11-22T13:23:36.219Z,8.30
2022-11-22T13:26:42.606Z,8.30
2022-11-22T13:29:54.734Z,8.20
2022-11-22T13:32:24.017Z,8.10
2022-11-22T13:35:37.018Z,8.10
2022-11-22T13:38:25.701Z,8.00
2022-11-22T13:41:05.142Z,7.90
2022-11-22T13:43:49.496Z,7.90
2022-11-22T13:46:47.586Z,7.80
2022-11-22T13:49:35.315Z,7.80
2022-11-22T13:52:25.866Z,7.80
2022-11-22T13:54:53.358Z,7.70
2022-11-22T13:57:35.290Z,7.70
2022-11-22T14:13:31.213Z,7.60
2022-11-22T14:16:21.156Z,7.60
2022-11-22T14:25:40.692Z,7.50
2022-11-22T14:34:25.931Z,7.40
2022-11-22T14:37:14.593Z,7.30
2022-11-22T14:39:45.614Z,7.30
2022-11-22T14:42:41.295Z,7.20
2022-11-22T14:45:11.831Z,7.20
2022-11-22T14:48:02.497Z,7.10
2022-11-22T14:50:44.701Z,7.10
2022-11-22T14:53:35.101Z,7.10
2022-11-22T14:56:25.327Z,7.10
2022-11-22T14:59:28.383Z,7.10
2022-11-22T15:02:17.173Z,7.10
2022-11-22T15:09:12.369Z,7.10
2022-11-22T15:09:23.401Z,7.10
2022-11-22T15:11:25.093Z,7.10
2022-11-22T15:14:13.709Z,7.10
2022-11-22T15:57:44.941Z,6.70
2022-11-22T16:00:28.078Z,6.70
2022-11-22T16:03:07.619Z,6.70
2022-11-22T16:06:08.152Z,6.70
2022-11-22T16:08:31.044Z,6.70
2022-11-22T16:11:00.110Z,6.70
2022-11-22T16:13:32.971Z,6.70
2022-11-22T16:16:33.793Z,6.70
2022-11-22T16:19:24.398Z,6.70
2022-11-22T16:21:59.964Z,6.70
2022-11-22T16:24:28.952Z,6.60
2022-11-22T16:27:05.640Z,6.60
2022-11-22T16:29:35.779Z,6.60
2022-11-22T16:32:15.261Z,6.60
2022-11-22T16:34:43.582Z,6.60
2022-11-22T16:37:36.420Z,6.60
2022-11-22T16:40:06.342Z,6.60
2022-11-22T16:42:35.756Z,6.50
2022-11-22T16:45:04.693Z,6.50
2022-11-22T16:47:32.583Z,6.50
2022-11-22T16:49:59.888Z,6.40
2022-11-22T16:52:28.004Z,6.40
2022-11-22T16:54:58.125Z,6.40
2022-11-22T17:08:28.618Z,6.20
2022-11-22T17:10:56.755Z,6.10
2022-11-22T17:13:27.323Z,6.10
2022-11-22T17:15:56.280Z,6.10
2022-11-22T17:18:23.951Z,6.10
2022-11-22T17:20:51.829Z,6.10
2022-11-22T17:23:26.563Z,6.00
2022-11-22T17:25:54.305Z,6.00
2022-11-22T17:28:30.616Z,6.00
2022-11-22T17:31:02.014Z,5.90
2022-11-22T17:34:06.305Z,5.90
2022-11-22T17:36:35.817Z,5.90
2022-11-22T17:39:05.877Z,5.80
2022-11-22T17:41:33.892Z,5.80
2022-11-22T17:44:02.109Z,5.80
2022-11-22T17:46:31.023Z,5.80
2022-11-22T17:48:59.954Z,5.80
2022-11-22T17:51:28.849Z,5.80
2022-11-22T17:54:16.601Z,5.80
2022-11-22T17:56:46.318Z,5.80
2022-11-22T17:59:13.500Z,5.80
2022-11-22T18:01:40.922Z,5.70
2022-11-22T18:04:29.937Z,5.70
2022-11-22T18:07:10.125Z,5.70
2022-11-22T18:09:38.812Z,5.70
2022-11-22T18:12:06.308Z,5.70
2022-11-22T18:14:34.807Z,5.70
2022-11-22T18:17:02.139Z,5.70
2022-11-22T18:19:29.749Z,5.70
2022-11-22T18:21:57.320Z,5.70
2022-11-22T18:25:05.769Z,5.70
2022-11-22T18:27:51.139Z,5.60
2022-11-22T18:30:45.432Z,5.60
2022-11-22T18:33:13.409Z,5.60
2022-11-22T18:35:40.637Z,5.70
2022-11-22T18:38:07.937Z,5.70
2022-11-22T18:40:35.181Z,5.70
2022-11-22T18:43:02.486Z,5.60
2022-11-22T18:45:30.595Z,5.60
2022-11-22T18:52:23.518Z,5.60
2022-11-22T18:54:52.998Z,5.60
2022-11-22T18:58:22.750Z,5.60
2022-11-22T19:00:54.053Z,5.60
2022-11-22T19:03:51.955Z,5.60
2022-11-22T19:06:20.331Z,5.60
2022-11-22T19:08:47.957Z,5.60
2022-11-22T19:11:16.280Z,5.60
2022-11-22T19:13:44.983Z,5.60
2022-11-22T19:16:19.093Z,5.60
2022-11-22T19:18:46.442Z,5.50
2022-11-22T19:21:16.402Z,5.50
2022-11-22T19:23:44.164Z,5.60
2022-11-22T19:26:19.613Z,5.60
2022-11-22T19:28:48.684Z,5.60
2022-11-22T19:31:18.541Z,5.60
2022-11-22T19:33:46.650Z,5.60
2022-11-22T19:36:18.209Z,5.60
2022-11-22T19:38:46.056Z,5.60
2022-11-22T19:41:16.934Z,5.60
2022-11-22T19:43:44.834Z,5.60
2022-11-22T19:46:12.647Z,5.60
2022-11-22T19:48:46.631Z,5.60
2022-11-22T19:51:15.827Z,5.60
2022-11-22T19:53:43.334Z,5.60
2022-11-22T19:56:16.024Z,5.60
2022-11-22T19:58:44.826Z,5.60
2022-11-22T20:01:40.264Z,5.60
2022-11-22T20:04:08.694Z,5.60
2022-11-22T20:06:36.779Z,5.60
2022-11-22T20:09:10.201Z,5.60
2022-11-22T20:11:40.428Z,5.70
2022-11-22T20:14:09.558Z,5.60
2022-11-22T20:16:41.391Z,5.60
2022-11-22T20:19:12.544Z,5.60
2022-11-22T20:21:40.569Z,5.60
2022-11-22T20:24:08.326Z,5.60
2022-11-22T20:26:35.975Z,5.60
2022-11-22T20:29:06.693Z,5.60
2022-11-22T20:31:36.320Z,5.60
2022-11-22T20:34:11.764Z,5.60
2022-11-22T20:36:39.210Z,5.60
2022-11-22T20:42:05.855Z,5.50
2022-11-22T20:44:38.073Z,5.50
2022-11-22T20:47:05.276Z,5.50
2022-11-22T20:49:32.803Z,5.50
2022-11-22T20:52:00.167Z,5.50
2022-11-22T20:54:27.833Z,5.50
2022-11-22T20:56:55.960Z,5.50
2022-11-22T20:59:23.564Z,5.50
2022-11-22T21:01:50.969Z,5.50
2022-11-22T21:04:19.587Z,5.40
2022-11-22T21:06:47.155Z,5.40
2022-11-22T21:09:16.311Z,5.40
2022-11-22T21:11:45.714Z,5.40
2022-11-22T21:14:38.270Z,5.40
2022-11-22T21:17:29.952Z,5.30
2022-11-22T21:19:53.219Z,5.30
2022-11-22T21:22:20.591Z,5.20
2022-11-22T21:24:48.156Z,5.20
2022-11-22T21:27:15.904Z,5.20
2022-11-22T21:29:43.492Z,5.20
2022-11-22T21:32:10.738Z,5.20
2022-11-22T21:34:38.827Z,5.10
2022-11-22T21:37:06.288Z,5.10
2022-11-22T21:39:33.716Z,5.00
2022-11-22T21:42:01.256Z,5.10
2022-11-22T21:44:28.885Z,5.10
2022-11-22T21:46:56.351Z,5.10
2022-11-22T21:49:23.715Z,5.10
2022-11-22T21:51:50.897Z,5.10
2022-11-22T21:54:19.737Z,5.10
2022-11-22T21:56:47.004Z,5.20
2022-11-22T21:59:14.340Z,5.10
2022-11-22T22:01:41.891Z,5.10
2022-11-22T22:04:10.759Z,5.10
2022-11-22T22:06:41.273Z,5.10
2022-11-22T22:09:12.254Z,5.10
2022-11-22T22:11:42.002Z,5.10
2022-11-22T22:14:09.140Z,5.10
2022-11-22T22:16:36.747Z,5.00
2022-11-22T22:19:09.465Z,5.00
2022-11-22T22:21:37.043Z,5.00
2022-11-22T22:24:04.532Z,5.00
2022-11-22T22:26:32.366Z,5.00
2022-11-22T22:28:59.655Z,5.00
2022-11-22T22:31:27.160Z,5.00
2022-11-22T22:33:56.243Z,5.00
2022-11-22T22:36:27.926Z,5.00
2022-11-22T22:38:55.385Z,5.00
2022-11-22T22:41:23.037Z,4.90
2022-11-22T22:43:50.815Z,4.90
2022-11-22T22:46:21.038Z,4.90
2022-11-22T22:48:49.512Z,4.90
2022-11-22T22:51:19.395Z,4.90
2022-11-22T22:53:47.361Z,4.90
2022-11-22T22:56:17.900Z,4.90
2022-11-22T22:58:45.892Z,4.90
2022-11-22T23:01:21.780Z,4.90
2022-11-22T23:03:57.654Z,4.90
2022-11-22T23:06:27.355Z,4.90
2022-11-22T23:08:55.592Z,4.90
2022-11-22T23:11:44.306Z,4.90
2022-11-22T23:14:12.690Z,4.90
2022-11-22T23:16:41.999Z,4.80
2022-11-22T23:19:09.697Z,4.80
2022-11-22T23:21:36.883Z,4.80
2022-11-22T23:24:04.749Z,4.80
2022-11-22T23:26:32.360Z,4.70
2022-11-22T23:29:00.198Z,4.70
2022-11-22T23:31:27.742Z,4.70
2022-11-22T23:33:54.974Z,4.70
2022-11-22T23:36:23.596Z,4.60
2022-11-22T23:38:50.924Z,4.60
2022-11-22T23:41:20.586Z,4.60
2022-11-22T23:44:40.571Z,4.50
2022-11-22T23:47:20.811Z,4.50
2022-11-22T23:49:48.463Z,4.40
2022-11-22T23:52:15.595Z,4.40
2022-11-22T23:54:42.803Z,4.40
2022-11-22T23:57:35.386Z,4.40
